STS Pogoria — SQKY — position and weather

sailwx.info

Track history (hours):
 
Tides and Currents Weather Stations Pressure Air Temp Water Temp Dewpoint Dewpoint Depression Visibility Wind Speed Wind Dir Waves Ship Positions

STS Pogoria

Last reported at 2020-Apr-02 02:27 UTC. Time now 2020-Apr-02 03:58 UTC.
Position N 54°24' E 011°56'.

Length 47 m.

Type: Sailing vessel. MMSI: 261146000.

Date/timePositionNaut miles runAvg speedWind from/ knotsBaromVisibWave heightAir tempDewpointWater temp
2020-Apr-02 02:27N 54°24' E 011°56'4 7.9
2020-Apr-02 01:59N 54°25' E 011°49'29 7.6
2020-Apr-01 22:12N 54°35' E 011°03'25 6.6
2020-Apr-01 18:22N 54°30' E 010°21'2 6.2
2020-Apr-01 18:00N 54°28' E 010°17'6 6.0
2020-Apr-01 17:00N 54°23' E 010°12'2 3.2
2020-Apr-01 16:16N 54°22' E 010°09'32 5.4
2020-Apr-01 10:23N 54°08' E 009°20'15 6.4
2020-Apr-01 07:59N 53°54' E 009°09'0 0.0
2020-Apr-01 07:29N 53°54' E 009°09'37 3.9
2020-Mar-31 22:00N 54°02' E 008°09'0 0.1
2020-Mar-31 21:00N 54°02' E 008°08'0 0.1
2020-Mar-31 20:30N 54°02' E 008°09'0 0.0
2020-Mar-31 18:00N 54°02' E 008°08'0 0.1
2020-Mar-31 16:30N 54°02' E 008°08'1 1.7
2020-Mar-31 16:00N 54°02' E 008°07'  
2020-Mar-28 12:25N 52°33' E 002°20'2 3.8
2020-Mar-28 11:59N 52°33' E 002°17'2 4.1
2020-Mar-28 11:30N 52°34' E 002°14'66 2.4
2020-Mar-27 07:58N 51°29' E 002°21'8 4.1
2020-Mar-27 05:58N 51°21' E 002°23'113 3.7
2020-Mar-25 23:00N 50°02' E 000°14'15 6.1
2020-Mar-25 20:29N 50°03' W 000°10'60 4.7
2020-Mar-25 07:37N 49°59' W 001°44'15 7.1
2020-Mar-25 05:31N 49°56' W 002°06'13 3.3
2020-Mar-25 01:30N 49°52' W 002°26'1 2.7
2020-Mar-25 01:00N 49°52' W 002°28'2 3.3
2020-Mar-25 00:30N 49°51' W 002°30'6 4.2
2020-Mar-24 23:00N 49°49' W 002°40'7 4.9
2020-Mar-24 21:30N 49°47' W 002°51'9 6.1
2020-Mar-24 20:00N 49°44' W 003°04'3 6.8
2020-Mar-24 19:30N 49°42' W 003°08'3 6.8
2020-Mar-24 19:00N 49°40' W 003°13'10 6.9
2020-Mar-24 17:30N 49°34' W 003°26'3 6.8
2020-Mar-24 17:00N 49°32' W 003°30'11 6.8
2020-Mar-24 15:21N 49°26' W 003°45'  
Track history (hours):
 
Tides and Currents Weather Stations Pressure Air Temp Water Temp Dewpoint Dewpoint Depression Visibility Wind Speed Wind Dir Waves Ship Positions

STS Pogoria

Last reported at 2020-Apr-02 02:27 UTC. Time now 2020-Apr-02 03:58 UTC.
Position N 54°24' E 011°56'.

Length 47 m.

Type: Sailing vessel. MMSI: 261146000.

Date/timePositionNaut miles runAvg speedWind from/ knotsBaromVisibWave heightAir tempDewpointWater temp
2020-Apr-02 02:27N 54°24' E 011°56'4 7.9
2020-Apr-02 01:59N 54°25' E 011°49'29 7.6
2020-Apr-01 22:12N 54°35' E 011°03'25 6.6
2020-Apr-01 18:22N 54°30' E 010°21'2 6.2
2020-Apr-01 18:00N 54°28' E 010°17'6 6.0
2020-Apr-01 17:00N 54°23' E 010°12'2 3.2
2020-Apr-01 16:16N 54°22' E 010°09'32 5.4
2020-Apr-01 10:23N 54°08' E 009°20'15 6.4
2020-Apr-01 07:59N 53°54' E 009°09'0 0.0
2020-Apr-01 07:29N 53°54' E 009°09'37 3.9
2020-Mar-31 22:00N 54°02' E 008°09'0 0.1
2020-Mar-31 21:00N 54°02' E 008°08'0 0.1
2020-Mar-31 20:30N 54°02' E 008°09'0 0.0
2020-Mar-31 18:00N 54°02' E 008°08'0 0.1
2020-Mar-31 16:30N 54°02' E 008°08'1 1.7
2020-Mar-31 16:00N 54°02' E 008°07'  
2020-Mar-28 12:25N 52°33' E 002°20'2 3.8
2020-Mar-28 11:59N 52°33' E 002°17'2 4.1
2020-Mar-28 11:30N 52°34' E 002°14'66 2.4
2020-Mar-27 07:58N 51°29' E 002°21'8 4.1
2020-Mar-27 05:58N 51°21' E 002°23'113 3.7
2020-Mar-25 23:00N 50°02' E 000°14'15 6.1
2020-Mar-25 20:29N 50°03' W 000°10'60 4.7
2020-Mar-25 07:37N 49°59' W 001°44'15 7.1
2020-Mar-25 05:31N 49°56' W 002°06'13 3.3
2020-Mar-25 01:30N 49°52' W 002°26'1 2.7
2020-Mar-25 01:00N 49°52' W 002°28'2 3.3
2020-Mar-25 00:30N 49°51' W 002°30'6 4.2
2020-Mar-24 23:00N 49°49' W 002°40'7 4.9
2020-Mar-24 21:30N 49°47' W 002°51'9 6.1
2020-Mar-24 20:00N 49°44' W 003°04'3 6.8
2020-Mar-24 19:30N 49°42' W 003°08'3 6.8
2020-Mar-24 19:00N 49°40' W 003°13'10 6.9
2020-Mar-24 17:30N 49°34' W 003°26'3 6.8
2020-Mar-24 17:00N 49°32' W 003°30'11 6.8
2020-Mar-24 15:21N 49°26' W 003°45'  

Dump ship's entire track history